Time;durP1;ratioP1;P1;durP2;ratioP2;P2;SDS_P1;SDS_P2;PMS_P1;PMS_P2;Temp;Humidity;BMP_temperature;BMP_pressure;BME280_temperature;BME280_humidity;BME280_pressure;Samples;Min_cycle;Max_cycle;Signal;HPM_P1;HPM_P2
2023/04/10 00:00:45;;;;;;;13.57;10.02;;;;;;;6.71;58.11;97302.72;5038115;28;20527;-81
2023/04/10 00:03:12;;;;;;;13.43;9.98;;;;;;;6.67;57.99;97300.50;5038641;28;20053;-78
2023/04/10 00:05:40;;;;;;;13.98;9.50;;;;;;;6.63;58.08;97299.19;5038961;28;20049;-78
2023/04/10 00:08:10;;;;;;;11.55;9.13;;;;;;;6.59;58.28;97294.25;5038433;28;20511;-82
2023/04/10 00:10:37;;;;;;;11.80;8.95;;;;;;;6.56;58.17;97291.94;5038842;28;20049;-83
2023/04/10 00:13:05;;;;;;;11.25;8.98;;;;;;;6.56;58.26;97297.13;5038520;28;20052;-79
2023/04/10 00:15:32;;;;;;;13.20;9.55;;;;;;;6.54;58.42;97301.63;5038886;28;20132;-82
2023/04/10 00:18:00;;;;;;;13.77;9.85;;;;;;;6.52;58.64;97306.16;5037995;28;20136;-84
2023/04/10 00:20:28;;;;;;;13.75;9.50;;;;;;;6.53;58.79;97307.75;5037521;28;20046;-81
2023/04/10 00:22:55;;;;;;;12.95;8.90;;;;;;;6.54;58.81;97301.63;5037512;28;20042;-81
2023/04/10 00:25:25;;;;;;;12.25;9.65;;;;;;;6.52;58.73;97298.38;5038894;28;20049;-82
2023/04/10 00:27:53;;;;;;;13.25;9.52;;;;;;;6.48;58.39;97297.00;5038211;28;20075;-81
2023/04/10 00:30:21;;;;;;;13.52;10.43;;;;;;;6.43;58.46;97288.00;5038089;28;20057;-78
2023/04/10 00:32:48;;;;;;;14.75;10.32;;;;;;;6.38;58.90;97291.00;5038461;28;20049;-82
2023/04/10 00:35:16;;;;;;;11.88;9.13;;;;;;;6.33;58.93;97282.84;5038615;28;20053;-81
2023/04/10 00:37:43;;;;;;;13.95;10.52;;;;;;;6.28;58.75;97292.81;5038403;28;20049;-84
2023/04/10 00:40:11;;;;;;;13.18;9.82;;;;;;;6.21;59.16;97283.94;5039969;28;20046;-81
2023/04/10 00:42:40;;;;;;;13.77;10.18;;;;;;;6.13;59.27;97276.88;5039302;28;20051;-82
2023/04/10 00:45:09;;;;;;;14.82;10.63;;;;;;;6.09;59.57;97280.69;5039195;28;20465;-82
2023/04/10 00:47:37;;;;;;;14.50;11.15;;;;;;;6.04;59.49;97277.69;5039457;28;20529;-82
2023/04/10 00:50:06;;;;;;;14.23;10.75;;;;;;;5.95;59.71;97276.72;5038835;28;20072;-79
2023/04/10 00:52:34;;;;;;;14.48;10.10;;;;;;;5.90;59.84;97271.94;5038682;28;20480;-80
2023/04/10 00:55:02;;;;;;;13.20;9.38;;;;;;;5.90;59.80;97276.28;5039209;28;20157;-82
2023/04/10 00:57:30;;;;;;;12.77;9.70;;;;;;;5.94;59.84;97272.47;5037135;28;20055;-82
2023/04/10 00:59:59;;;;;;;12.45;9.38;;;;;;;5.96;60.37;97275.75;5037398;28;20045;-79
2023/04/10 01:02:27;;;;;;;14.38;10.48;;;;;;;6.01;60.02;97283.94;5037410;28;20073;-82
2023/04/10 01:04:55;;;;;;;13.93;10.20;;;;;;;6.04;60.02;97283.69;5037727;28;20057;-82
2023/04/10 01:07:35;;;;;;;12.98;9.15;;;;;;;6.09;59.96;97286.66;5037432;28;20057;-79
2023/04/10 01:10:14;;;;;;;12.55;8.57;;;;;;;6.14;60.00;97284.50;5038124;28;20517;-81
2023/04/10 01:12:58;;;;;;;12.27;9.05;;;;;;;6.17;59.70;97273.84;5036417;28;20132;-80
2023/04/10 01:15:30;;;;;;;12.85;10.05;;;;;;;6.13;59.47;97277.66;5036804;28;20054;-81
2023/04/10 01:18:04;;;;;;;13.90;10.43;;;;;;;6.10;59.54;97274.53;5036791;28;20133;-81
2023/04/10 01:20:34;;;;;;;14.00;10.23;;;;;;;6.05;59.64;97274.94;5037659;28;20049;-80
2023/04/10 01:23:19;;;;;;;12.38;9.55;;;;;;;6.06;60.31;97275.78;5036385;28;20053;-84
2023/04/10 01:25:52;;;;;;;15.02;10.10;;;;;;;6.06;59.67;97276.59;5037009;28;20046;-82
2023/04/10 01:28:47;;;;;;;15.82;11.07;;;;;;;6.04;60.01;97275.09;5037440;28;20055;-80
2023/04/10 01:31:20;;;;;;;13.73;9.80;;;;;;;5.98;59.86;97269.50;5036486;28;20065;-81
2023/04/10 01:33:51;;;;;;;12.90;9.60;;;;;;;5.93;59.70;97268.25;5036061;28;20119;-79
2023/04/10 01:36:24;;;;;;;13.63;9.70;;;;;;;5.89;60.26;97269.47;5035514;28;20053;-81
2023/04/10 01:38:54;;;;;;;16.40;10.38;;;;;;;5.88;60.39;97273.00;5037189;28;20064;-82
2023/04/10 01:41:23;;;;;;;16.75;11.95;;;;;;;5.89;59.96;97264.28;5036445;28;20140;-80
2023/04/10 01:43:54;;;;;;;21.52;13.30;;;;;;;5.87;59.98;97267.00;5037276;28;20056;-81
2023/04/10 01:46:23;;;;;;;17.27;12.35;;;;;;;5.85;60.10;97265.50;5037318;28;20161;-83
2023/04/10 01:48:54;;;;;;;14.85;10.55;;;;;;;5.81;60.11;97271.91;5037912;28;20045;-82
2023/04/10 01:51:23;;;;;;;16.60;11.35;;;;;;;5.74;60.38;97272.44;5036893;28;20053;-82
2023/04/10 01:53:51;;;;;;;13.50;9.90;;;;;;;5.67;60.48;97266.19;5035990;28;20136;-81
2023/04/10 01:56:20;;;;;;;14.50;10.02;;;;;;;5.61;60.94;97260.72;5037393;28;20052;-80
2023/04/10 01:58:48;;;;;;;13.07;9.88;;;;;;;5.57;60.68;97261.00;5036770;28;20071;-80
2023/04/10 02:01:20;;;;;;;13.57;10.05;;;;;;;5.54;61.43;97265.63;5037453;28;20053;-81
2023/04/10 02:03:57;;;;;;;15.18;10.77;;;;;;;5.50;60.76;97266.84;5037160;28;20092;-84
2023/04/10 02:06:34;;;;;;;14.98;9.85;;;;;;;5.46;61.18;97262.88;5037591;28;20046;-82
2023/04/10 02:09:10;;;;;;;15.13;10.65;;;;;;;5.44;61.48;97267.34;5037012;28;20519;-83
2023/04/10 02:11:45;;;;;;;15.57;10.35;;;;;;;5.42;61.12;97269.25;5037653;28;20050;-81
2023/04/10 02:14:17;;;;;;;14.55;9.75;;;;;;;5.39;61.59;97272.13;5037119;28;20060;-82
2023/04/10 02:16:47;;;;;;;11.70;9.53;;;;;;;5.33;61.36;97263.09;5037725;28;20136;-83
2023/04/10 02:19:16;;;;;;;13.55;9.93;;;;;;;5.27;61.56;97269.66;5037307;28;20429;-85
2023/04/10 02:21:43;;;;;;;13.75;9.77;;;;;;;5.23;61.30;97270.84;5037202;28;20059;-83
2023/04/10 02:24:11;;;;;;;13.00;9.60;;;;;;;5.19;61.47;97269.47;5037155;28;20049;-82
2023/04/10 02:26:45;;;;;;;13.27;10.18;;;;;;;5.12;62.15;97270.97;5037066;28;20049;-82
2023/04/10 02:29:13;;;;;;;11.90;9.55;;;;;;;5.07;61.60;97276.53;5036905;28;20480;-82
2023/04/10 02:31:41;;;;;;;12.88;9.55;;;;;;;5.04;61.99;97278.53;5036532;28;20132;-86
2023/04/10 02:34:10;;;;;;;14.55;10.45;;;;;;;5.00;62.30;97272.00;5036249;28;20437;-81
2023/04/10 02:36:38;;;;;;;12.48;9.65;;;;;;;4.97;62.53;97274.84;5036629;28;20137;-82
2023/04/10 02:39:07;;;;;;;13.02;9.23;;;;;;;4.92;62.19;97276.06;5036319;28;20141;-80
2023/04/10 02:41:34;;;;;;;13.70;10.05;;;;;;;4.90;62.30;97283.13;5036418;28;20079;-83
2023/04/10 02:44:02;;;;;;;13.38;10.10;;;;;;;4.87;62.67;97279.97;5036174;28;20132;-81
2023/04/10 02:46:29;;;;;;;12.50;9.57;;;;;;;4.84;62.84;97278.47;5036779;28;20053;-81
2023/04/10 02:48:57;;;;;;;13.85;10.10;;;;;;;4.80;62.34;97269.31;5036402;28;20058;-83
2023/04/10 02:51:26;;;;;;;15.30;11.05;;;;;;;4.77;62.91;97271.34;5037168;28;20049;-85
2023/04/10 02:53:54;;;;;;;13.45;10.02;;;;;;;4.72;62.81;97269.13;5036607;28;20132;-81
2023/04/10 02:56:21;;;;;;;17.05;10.48;;;;;;;4.68;63.17;97266.00;5036124;28;20054;-84
2023/04/10 02:58:49;;;;;;;14.32;10.15;;;;;;;4.65;62.99;97271.41;5036747;28;20527;-82
2023/04/10 03:01:17;;;;;;;20.50;11.05;;;;;;;4.59;62.82;97263.34;5036208;28;20069;-83
2023/04/10 03:03:44;;;;;;;12.48;9.50;;;;;;;4.54;63.02;97249.06;5035976;28;20531;-81
2023/04/10 03:06:12;;;;;;;15.50;10.68;;;;;;;4.52;63.44;97248.34;5038988;28;20144;-82
2023/04/10 03:08:41;;;;;;;13.00;9.30;;;;;;;4.49;63.39;97251.22;5039680;28;20045;-82
2023/04/10 03:11:09;;;;;;;15.98;10.55;;;;;;;4.46;63.68;97248.91;5040157;28;20132;-81
2023/04/10 03:13:36;;;;;;;15.60;10.65;;;;;;;4.45;63.40;97249.81;5039518;28;20069;-79
2023/04/10 03:16:04;;;;;;;16.17;10.93;;;;;;;4.44;63.81;97255.09;5040024;28;20500;-81
2023/04/10 03:18:33;;;;;;;13.23;9.85;;;;;;;4.43;63.45;97254.28;5039165;28;20176;-79
2023/04/10 03:21:01;;;;;;;13.82;9.82;;;;;;;4.43;63.82;97249.13;5038728;28;20045;-82
2023/04/10 03:23:29;;;;;;;14.30;10.13;;;;;;;4.44;63.71;97249.94;5037898;28;20045;-78
2023/04/10 03:25:57;;;;;;;15.35;9.80;;;;;;;4.44;64.04;97249.94;5039529;28;20156;-80
2023/04/10 03:28:26;;;;;;;14.80;10.48;;;;;;;4.43;63.74;97238.81;5038144;28;20060;-84
2023/04/10 03:30:54;;;;;;;12.20;9.25;;;;;;;4.42;63.72;97232.00;5039489;28;20576;-83
2023/04/10 03:33:21;;;;;;;15.35;9.73;;;;;;;4.41;63.77;97235.53;5038362;28;20052;-83
2023/04/10 03:35:49;;;;;;;14.23;9.55;;;;;;;4.39;63.90;97229.66;5040014;28;20049;-83
2023/04/10 03:38:17;;;;;;;14.35;9.73;;;;;;;4.37;64.16;97223.81;5040573;28;20076;-83
2023/04/10 03:40:44;;;;;;;13.82;9.48;;;;;;;4.36;64.01;97232.50;5039972;28;20053;-83
2023/04/10 03:43:13;;;;;;;13.32;9.65;;;;;;;4.34;64.09;97230.03;5161866;22;20056;-82
2023/04/10 03:45:41;;;;;;;14.60;9.95;;;;;;;4.33;64.38;97231.00;5035763;28;20493;-81
2023/04/10 03:48:08;;;;;;;14.65;9.80;;;;;;;4.34;64.31;97236.97;5035744;28;20505;-81
2023/04/10 03:50:36;;;;;;;12.65;9.40;;;;;;;4.35;64.10;97236.03;5035876;28;20046;-81
2023/04/10 03:59:28;;;;;;;13.98;9.63;;;;;;;4.40;64.50;97249.41;5034298;28;20072;-81
2023/04/10 04:11:08;;;;;;;13.38;9.48;;;;;;;4.57;63.51;97249.75;5034616;28;20049;-81
2023/04/10 04:16:50;;;;;;;13.98;9.98;;;;;;;4.50;63.81;97242.53;5034134;28;20140;-81
2023/04/10 04:22:28;;;;;;;13.80;9.68;;;;;;;4.44;63.73;97255.94;5090941;27;20369;-82
2023/04/10 04:24:55;;;;;;;14.43;10.45;;;;;;;4.47;63.75;97244.53;5091192;28;20151;-82
2023/04/10 04:27:24;;;;;;;13.68;9.75;;;;;;;4.48;63.65;97252.16;5092516;28;20058;-81
2023/04/10 04:35:09;;;;;;;16.00;10.18;;;;;;;4.43;63.72;97249.13;5090147;22;20049;-80
2023/04/10 04:37:38;;;;;;;13.23;9.95;;;;;;;4.39;63.88;97241.75;5070323;28;20139;-79
2023/04/10 04:40:06;;;;;;;17.75;10.43;;;;;;;4.36;64.06;97258.34;5070915;28;20421;-80
2023/04/10 04:42:34;;;;;;;14.88;10.25;;;;;;;4.36;64.23;97258.34;5070311;28;20192;-80
2023/04/10 04:45:02;;;;;;;14.05;9.68;;;;;;;4.33;64.05;97253.44;5070077;28;20055;-79
2023/04/10 04:47:29;;;;;;;13.77;9.73;;;;;;;4.29;64.15;97252.88;5070356;28;20053;-80
2023/04/10 04:49:57;;;;;;;13.82;9.73;;;;;;;4.29;64.32;97246.88;5070038;28;20055;-80
2023/04/10 04:52:26;;;;;;;13.20;9.90;;;;;;;4.30;64.25;97248.50;5070600;28;20049;-80
2023/04/10 04:54:55;;;;;;;14.55;9.50;;;;;;;4.37;64.55;97243.66;5069998;28;20437;-80
2023/04/10 04:57:22;;;;;;;14.70;10.48;;;;;;;4.44;63.96;97243.03;5069860;28;20053;-80
2023/04/10 04:59:50;;;;;;;14.27;10.63;;;;;;;4.54;63.82;97249.06;5070441;28;20055;-81
2023/04/10 05:02:21;;;;;;;13.13;9.57;;;;;;;4.65;63.63;97248.16;5071248;28;20049;-79
2023/04/10 05:04:49;;;;;;;12.65;9.43;;;;;;;4.71;62.99;97236.50;5070803;28;20116;-80
2023/04/10 05:07:17;;;;;;;11.88;9.02;;;;;;;4.77;63.18;97236.00;5070436;28;20056;-79
2023/04/10 05:09:45;;;;;;;14.30;9.38;;;;;;;4.82;62.83;97226.06;5070697;28;20044;-80
2023/04/10 05:12:13;;;;;;;14.25;10.15;;;;;;;4.86;63.19;97230.03;5070644;28;20052;-80
2023/04/10 05:14:41;;;;;;;13.40;8.95;;;;;;;4.91;62.55;97233.03;5070661;28;20064;-79
2023/04/10 05:17:08;;;;;;;13.23;9.30;;;;;;;4.93;62.58;97228.56;5072037;28;20123;-81
2023/04/10 05:19:36;;;;;;;11.50;8.77;;;;;;;4.98;62.46;97233.31;5091335;28;20057;-80
2023/04/10 05:22:04;;;;;;;13.52;10.20;;;;;;;5.05;62.40;97233.63;5090716;28;20055;-80
2023/04/10 05:24:31;;;;;;;13.98;10.13;;;;;;;5.10;61.99;97236.66;5091620;28;20053;-81
2023/04/10 05:26:59;;;;;;;14.05;9.35;;;;;;;5.09;61.87;97233.22;5091348;28;20036;-80
2023/04/10 05:29:28;;;;;;;11.75;9.48;;;;;;;5.12;62.38;97225.22;5090932;28;20120;-80
2023/04/10 05:31:56;;;;;;;14.40;10.00;;;;;;;5.15;61.82;97232.69;5087233;28;20052;-81
2023/04/10 05:34:23;;;;;;;14.52;9.43;;;;;;;5.18;62.08;97231.63;5077003;28;20060;-81
2023/04/10 05:36:51;;;;;;;13.43;10.15;;;;;;;5.21;62.21;97223.59;5075933;28;20079;-81
2023/04/10 05:39:18;;;;;;;12.30;8.65;;;;;;;5.25;61.67;97219.00;5059827;28;20144;-80
2023/04/10 05:41:46;;;;;;;13.82;9.55;;;;;;;5.28;61.64;97219.53;5056109;28;20049;-80
2023/04/10 05:44:14;;;;;;;12.35;8.85;;;;;;;5.33;61.70;97217.34;5056713;28;20056;-79
2023/04/10 05:46:43;;;;;;;12.63;9.85;;;;;;;5.40;61.86;97227.16;5056462;28;20056;-79
2023/04/10 05:49:10;;;;;;;13.02;9.32;;;;;;;5.45;61.32;97219.84;5056687;28;20053;-80
2023/04/10 05:51:38;;;;;;;13.90;9.68;;;;;;;5.53;61.34;97225.16;5056251;28;20047;-79
2023/04/10 05:54:06;;;;;;;13.60;9.35;;;;;;;5.62;61.06;97226.94;5055223;28;20136;-79
2023/04/10 05:56:33;;;;;;;14.02;9.90;;;;;;;5.69;61.08;97227.22;5055561;28;20505;-80
2023/04/10 05:59:01;;;;;;;12.60;8.82;;;;;;;5.76;60.95;97229.13;5055383;28;20045;-79
2023/04/10 06:01:28;;;;;;;13.80;9.55;;;;;;;5.84;60.79;97228.44;5055344;28;20076;-79
2023/04/10 06:03:57;;;;;;;13.35;9.23;;;;;;;5.94;60.76;97231.03;5055181;28;20053;-79
2023/04/10 06:06:25;;;;;;;10.07;7.90;;;;;;;6.04;60.29;97228.47;5055382;28;20045;-80
2023/04/10 06:08:53;;;;;;;11.45;8.52;;;;;;;6.12;60.03;97233.75;5056003;28;20057;-79
2023/04/10 06:11:21;;;;;;;13.30;9.60;;;;;;;6.16;59.69;97225.56;5055093;28;20041;-79
2023/04/10 06:13:49;;;;;;;10.13;8.50;;;;;;;6.23;59.36;97235.38;5055098;28;20059;-79
2023/04/10 06:16:17;;;;;;;11.43;8.48;;;;;;;6.28;59.36;97228.84;5055333;28;20049;-79
2023/04/10 06:18:46;;;;;;;11.90;8.95;;;;;;;6.36;58.94;97241.09;5055171;28;20045;-79
2023/04/10 06:21:16;;;;;;;10.60;8.00;;;;;;;6.43;58.51;97230.97;5055000;28;20049;-80
2023/04/10 06:23:44;;;;;;;10.32;8.15;;;;;;;6.48;58.65;97228.81;5054810;28;20040;-80
2023/04/10 06:26:12;;;;;;;11.10;8.60;;;;;;;6.60;58.37;97227.66;5055254;28;20049;-80
2023/04/10 06:28:40;;;;;;;12.32;8.80;;;;;;;6.71;58.31;97224.09;5055141;28;20041;-79
2023/04/10 06:31:08;;;;;;;11.02;9.10;;;;;;;6.81;57.97;97222.28;5054990;28;20535;-79
2023/04/10 06:33:36;;;;;;;10.93;8.57;;;;;;;6.94;57.44;97220.19;5054597;28;20246;-80
2023/04/10 06:36:05;;;;;;;9.77;8.00;;;;;;;7.08;57.59;97220.66;5054727;28;20049;-80
2023/04/10 06:38:36;;;;;;;10.90;7.90;;;;;;;7.22;56.84;97218.41;5054774;28;20431;-80
2023/04/10 06:41:05;;;;;;;10.65;8.27;;;;;;;7.35;56.69;97218.06;5054374;28;20041;-80
2023/04/10 06:43:34;;;;;;;11.45;8.52;;;;;;;7.49;56.51;97224.50;5053207;28;20061;-79
2023/04/10 06:46:03;;;;;;;10.05;7.63;;;;;;;7.61;56.11;97220.75;5054241;28;20053;-80
2023/04/10 06:48:31;;;;;;;10.27;8.15;;;;;;;7.74;55.81;97228.19;5054503;28;20057;-80
2023/04/10 06:51:00;;;;;;;10.70;8.20;;;;;;;7.83;55.17;97227.28;5061336;28;20415;-81
2023/04/10 06:53:28;;;;;;;11.02;8.23;;;;;;;7.93;55.24;97226.38;5067531;28;20076;-80
2023/04/10 06:55:58;;;;;;;11.25;8.65;;;;;;;8.04;54.96;97228.75;5064084;28;20059;-79
2023/04/10 06:58:29;;;;;;;9.98;8.02;;;;;;;8.16;54.77;97219.75;5055059;28;20045;-79
2023/04/10 07:00:57;;;;;;;9.90;8.00;;;;;;;8.28;54.02;97216.91;5054240;28;20052;-79
2023/04/10 07:03:25;;;;;;;11.45;8.23;;;;;;;8.43;54.05;97215.41;5054305;28;20045;-79
2023/04/10 07:05:53;;;;;;;10.35;7.78;;;;;;;8.57;53.44;97222.66;5054550;28;20052;-79
2023/04/10 07:08:20;;;;;;;9.40;7.68;;;;;;;8.70;53.23;97221.41;5054670;28;20052;-79
2023/04/10 07:10:48;;;;;;;10.15;7.88;;;;;;;8.81;52.95;97208.13;5054064;28;20044;-80
2023/04/10 07:13:17;;;;;;;11.75;7.63;;;;;;;8.93;52.41;97214.72;5053911;28;20052;-79
2023/04/10 07:15:44;;;;;;;9.80;7.40;;;;;;;9.08;52.48;97207.94;5053673;28;20056;-80
2023/04/10 07:18:12;;;;;;;11.50;8.73;;;;;;;9.22;51.87;97214.31;5053859;28;20049;-80
2023/04/10 07:20:40;;;;;;;11.52;9.00;;;;;;;9.37;51.64;97219.75;5054423;28;20063;-79
2023/04/10 07:23:07;;;;;;;8.70;7.38;;;;;;;9.52;51.44;97226.94;5053649;28;20174;-79
2023/04/10 07:25:35;;;;;;;10.88;7.50;;;;;;;9.72;51.22;97224.88;5053894;28;20515;-79
2023/04/10 07:28:03;;;;;;;10.45;8.30;;;;;;;9.90;50.61;97225.53;5053529;28;20127;-80
2023/04/10 07:30:32;;;;;;;9.32;7.78;;;;;;;10.05;49.85;97226.50;5053650;28;20053;-80
2023/04/10 07:33:00;;;;;;;8.27;7.30;;;;;;;10.18;49.68;97225.22;5053138;28;20073;-79
2023/04/10 07:35:28;;;;;;;9.25;7.45;;;;;;;10.30;49.59;97229.97;5053079;28;20064;-80
2023/04/10 07:37:56;;;;;;;10.68;9.05;;;;;;;10.54;49.37;97220.50;5053390;28;20124;-79
2023/04/10 07:40:24;;;;;;;11.43;7.97;;;;;;;10.77;48.58;97225.00;5052948;28;20084;-79
2023/04/10 07:42:51;;;;;;;9.55;8.05;;;;;;;10.98;48.39;97221.84;5052742;28;20499;-79
2023/04/10 07:45:20;;;;;;;8.48;6.80;;;;;;;11.11;47.67;97228.13;5052727;28;20049;-80
2023/04/10 07:47:50;;;;;;;8.88;7.40;;;;;;;11.26;47.27;97230.03;5053120;28;20308;-79
2023/04/10 07:50:18;;;;;;;9.13;7.82;;;;;;;11.38;46.82;97227.84;5052928;28;20053;-80
2023/04/10 07:52:46;;;;;;;9.40;7.95;;;;;;;11.45;46.50;97234.00;5053099;28;20055;-80
2023/04/10 07:55:14;;;;;;;9.77;7.75;;;;;;;11.64;46.07;97222.31;5052888;28;20135;-79
2023/04/10 07:57:43;;;;;;;7.95;7.15;;;;;;;11.93;45.75;97232.91;5052660;28;20523;-80
2023/04/10 08:00:13;;;;;;;9.27;7.55;;;;;;;12.94;43.45;97227.41;5052964;28;20057;-79
2023/04/10 08:02:41;;;;;;;9.32;7.47;;;;;;;14.48;40.53;97232.50;5052927;28;20055;-80
2023/04/10 08:05:12;;;;;;;9.40;7.60;;;;;;;15.72;37.86;97234.34;5052791;28;20053;-80
2023/04/10 08:07:40;;;;;;;8.10;6.70;;;;;;;16.66;36.34;97225.50;5052971;28;20053;-80
2023/04/10 08:10:10;;;;;;;8.68;7.65;;;;;;;17.62;34.89;97222.19;5053345;28;20060;-80
2023/04/10 08:12:39;;;;;;;9.20;8.18;;;;;;;18.54;33.51;97229.69;5052699;28;20056;-80
2023/04/10 08:15:08;;;;;;;7.18;6.45;;;;;;;19.40;31.84;97235.16;5052752;28;20052;-80
2023/04/10 08:17:44;;;;;;;8.07;7.13;;;;;;;20.13;30.63;97228.88;5052793;28;20144;-80
2023/04/10 08:20:15;;;;;;;10.50;7.50;;;;;;;20.86;28.88;97238.31;5052445;28;20095;-80
2023/04/10 08:22:43;;;;;;;7.07;6.38;;;;;;;21.33;28.58;97232.91;5052489;28;20103;-80
2023/04/10 08:25:11;;;;;;;7.70;6.90;;;;;;;21.59;28.24;97225.47;5052205;28;20559;-80
2023/04/10 08:27:39;;;;;;;9.43;6.32;;;;;;;21.71;28.47;97231.56;5051888;28;20583;-80
2023/04/10 08:30:07;;;;;;;7.50;6.57;;;;;;;21.89;27.85;97240.38;5051787;28;20048;-78
2023/04/10 08:32:35;;;;;;;6.90;6.20;;;;;;;21.62;27.87;97245.44;5051599;28;20045;-78
2023/04/10 08:35:03;;;;;;;7.28;6.50;;;;;;;21.28;27.72;97230.16;5051831;28;20055;-79
2023/04/10 08:37:32;;;;;;;7.75;6.47;;;;;;;21.24;27.10;97239.63;5052352;28;20048;-78
2023/04/10 08:40:00;;;;;;;7.65;6.85;;;;;;;21.14;27.46;97236.75;5052028;28;20076;-78
2023/04/10 08:42:28;;;;;;;6.10;5.32;;;;;;;21.13;26.86;97224.53;5051592;28;20052;-78
2023/04/10 08:44:55;;;;;;;6.20;5.60;;;;;;;21.24;26.71;97228.22;5052529;28;20055;-79
2023/04/10 08:47:27;;;;;;;6.63;5.70;;;;;;;21.36;25.73;97232.44;5052038;28;20072;-78
2023/04/10 08:49:57;;;;;;;7.07;6.10;;;;;;;21.61;26.05;97228.69;5051862;28;20428;-78
2023/04/10 08:52:26;;;;;;;6.35;5.75;;;;;;;21.82;25.84;97227.22;5051731;28;20057;-79
2023/04/10 08:54:57;;;;;;;6.25;5.65;;;;;;;22.16;25.41;97214.78;5052128;28;20056;-81
2023/04/10 08:57:26;;;;;;;5.38;4.88;;;;;;;22.50;24.51;97214.84;5051910;28;20060;-81
2023/04/10 08:59:53;;;;;;;5.97;5.38;;;;;;;22.77;24.33;97224.78;5052139;28;20052;-80
2023/04/10 09:02:21;;;;;;;5.82;4.75;;;;;;;23.32;24.01;97210.63;5051459;28;20544;-78
2023/04/10 09:04:51;;;;;;;5.93;5.40;;;;;;;23.89;23.29;97213.91;5051700;28;20045;-80
2023/04/10 09:07:19;;;;;;;6.05;5.45;;;;;;;24.30;22.87;97203.63;5052345;28;20053;-79
2023/04/10 09:09:46;;;;;;;6.80;5.72;;;;;;;24.79;22.18;97211.44;5055358;28;20049;-79
2023/04/10 09:12:16;;;;;;;5.53;4.93;;;;;;;24.97;21.44;97208.34;5055139;28;20064;-79
2023/04/10 09:14:44;;;;;;;6.18;5.57;;;;;;;24.93;21.75;97195.78;5055458;28;20132;-79
2023/04/10 09:17:14;;;;;;;6.00;5.40;;;;;;;25.11;21.70;97197.19;5056328;28;20049;-80
2023/04/10 09:19:43;;;;;;;5.38;4.82;;;;;;;25.55;20.97;97192.28;5056444;28;20136;-80
2023/04/10 09:22:11;;;;;;;5.70;4.55;;;;;;;25.80;21.25;97193.41;5057296;28;20052;-79
2023/04/10 09:24:40;;;;;;;5.05;4.55;;;;;;;26.29;21.25;97185.69;5057000;28;20053;-80
2023/04/10 09:27:08;;;;;;;5.97;5.38;;;;;;;26.60;20.62;97190.25;5056645;28;20123;-80
2023/04/10 09:29:42;;;;;;;7.00;5.63;;;;;;;26.33;20.05;97182.47;5055682;28;20504;-79
2023/04/10 09:32:09;;;;;;;5.50;5.00;;;;;;;25.95;20.79;97187.31;5055233;28;20135;-80
2023/04/10 09:34:52;;;;;;;5.25;4.75;;;;;;;25.85;20.17;97172.03;5055717;28;20071;-80
2023/04/10 09:37:21;;;;;;;5.65;5.07;;;;;;;26.06;20.57;97172.88;5056104;28;20060;-80
2023/04/10 09:39:49;;;;;;;4.93;4.50;;;;;;;26.35;19.80;97175.00;5055942;28;20133;-79
2023/04/10 09:42:31;;;;;;;5.47;4.93;;;;;;;26.04;20.37;97172.31;5055590;28;20052;-80
2023/04/10 09:45:01;;;;;;;6.60;5.95;;;;;;;25.88;20.18;97163.50;5055800;28;20051;-79
2023/04/10 09:47:29;;;;;;;5.45;4.95;;;;;;;25.83;20.58;97164.28;5055516;28;20057;-79
2023/04/10 09:49:59;;;;;;;4.85;4.35;;;;;;;26.06;20.14;97164.84;5055381;28;20052;-80
2023/04/10 09:52:29;;;;;;;5.80;5.30;;;;;;;26.00;20.25;97147.19;5055025;28;20053;-80
2023/04/10 09:54:58;;;;;;;5.05;4.55;;;;;;;25.94;19.87;97145.63;5055234;28;20049;-79
2023/04/10 09:57:27;;;;;;;4.50;4.07;;;;;;;25.80;20.06;97138.09;5055193;28;20053;-79
2023/04/10 09:59:56;;;;;;;4.38;3.97;;;;;;;25.13;21.27;97131.00;5054990;28;20047;-79
2023/04/10 10:02:29;;;;;;;6.13;5.25;;;;;;;24.67;21.32;97129.72;5055231;28;20512;-80
2023/04/10 10:04:59;;;;;;;5.72;5.00;;;;;;;24.32;22.13;97132.19;5056137;28;20045;-80
2023/04/10 10:07:27;;;;;;;6.20;5.60;;;;;;;23.90;22.22;97120.41;5056058;28;20049;-80
2023/04/10 10:09:55;;;;;;;4.75;4.25;;;;;;;23.43;23.08;97121.81;5055486;28;20451;-80
2023/04/10 10:12:29;;;;;;;5.57;5.03;;;;;;;22.69;23.68;97121.47;5055011;28;20514;-80
2023/04/10 10:15:01;;;;;;;4.25;3.85;;;;;;;22.26;24.82;97115.03;5055237;28;20045;-80
2023/04/10 10:17:36;;;;;;;4.68;4.18;;;;;;;22.11;24.36;97121.72;5055106;28;20135;-80
2023/04/10 10:20:07;;;;;;;4.50;4.10;;;;;;;21.76;25.07;97119.31;5055020;28;20084;-79
2023/04/10 10:22:36;;;;;;;4.15;3.75;;;;;;;21.66;25.42;97113.81;5055443;28;20128;-79
2023/04/10 10:25:04;;;;;;;5.10;4.57;;;;;;;21.59;25.70;97103.38;5054909;28;20107;-79
2023/04/10 10:27:37;;;;;;;4.65;4.25;;;;;;;21.62;25.30;97108.19;5055398;28;20057;-80
2023/04/10 10:30:07;;;;;;;4.45;4.05;;;;;;;21.64;25.34;97099.97;5054954;28;20400;-80
2023/04/10 10:32:58;;;;;;;3.55;3.25;;;;;;;21.63;25.35;97099.19;5054363;28;20419;-80
2023/04/10 10:35:26;;;;;;;6.07;4.63;;;;;;;21.61;25.57;97095.97;5054732;28;20049;-80
2023/04/10 10:37:58;;;;;;;5.32;4.82;;;;;;;21.44;25.84;97087.19;5054597;28;20397;-80
2023/04/10 10:40:31;;;;;;;6.10;5.38;;;;;;;21.27;26.02;97079.16;5055081;28;20469;-80
2023/04/10 10:43:08;;;;;;;5.28;4.78;;;;;;;21.13;26.07;97081.28;5054139;28;20056;-80
2023/04/10 10:45:41;;;;;;;5.03;4.53;;;;;;;21.06;26.58;97068.19;5054418;28;20056;-80
2023/04/10 10:48:10;;;;;;;;;;;;;;;20.99;27.29;97073.63;5054689;28;20049;-81
2023/04/10 10:50:57;;;;;;;5.05;4.47;;;;;;;20.94;26.91;97070.84;5054578;28;19921;-80
2023/04/10 10:53:33;;;;;;;4.65;3.33;;;;;;;20.98;26.12;97073.84;5054246;28;20103;-79
2023/04/10 10:56:33;;;;;;;4.53;3.90;;;;;;;20.99;26.43;97062.22;5054440;28;20104;-80
2023/04/10 10:59:02;;;;;;;3.45;3.15;;;;;;;20.89;25.18;97062.81;5054317;28;20053;-80
2023/04/10 11:01:29;;;;;;;3.78;3.47;;;;;;;20.86;25.48;97052.69;5054339;28;20083;-79
2023/04/10 11:04:00;;;;;;;4.07;3.67;;;;;;;20.74;25.47;97044.75;5053752;28;20045;-79
2023/04/10 11:06:51;;;;;;;3.80;3.45;;;;;;;20.62;25.99;97040.53;5053860;28;20056;-80
2023/04/10 11:09:48;;;;;;;4.40;4.00;;;;;;;20.52;25.27;97041.13;5054260;28;20110;-79
2023/04/10 11:12:16;;;;;;;3.70;3.40;;;;;;;20.16;25.94;97043.81;5058114;28;20051;-80
2023/04/10 11:14:56;;;;;;;3.83;3.50;;;;;;;19.95;26.37;97039.91;5054279;28;20055;-80
2023/04/10 11:17:49;;;;;;;4.68;3.22;;;;;;;19.75;25.79;97034.97;5054326;28;20525;-80
2023/04/10 11:20:20;;;;;;;3.88;3.47;;;;;;;19.67;26.59;97035.25;5054270;28;20048;-80
2023/04/10 11:23:07;;;;;;;4.15;3.53;;;;;;;19.74;26.75;97036.00;5053927;28;20049;-80
2023/04/10 11:25:51;;;;;;;4.03;3.63;;;;;;;19.86;26.77;97032.56;5053474;28;20128;-79
2023/04/10 11:28:34;;;;;;;3.67;3.30;;;;;;;20.01;26.58;97024.16;5054269;28;20397;-79
2023/04/10 11:31:14;;;;;;;3.50;3.20;;;;;;;20.15;26.65;97031.59;5053797;28;20063;-80
2023/04/10 11:33:42;;;;;;;3.88;3.40;;;;;;;20.28;26.44;97029.75;5053487;28;20136;-80
2023/04/10 11:36:14;;;;;;;4.07;3.08;;;;;;;20.34;25.95;97023.53;5053675;28;20051;-80
2023/04/10 11:38:53;;;;;;;4.35;3.58;;;;;;;20.48;26.00;97032.81;5053788;28;20090;-79
2023/04/10 11:41:21;;;;;;;5.30;4.38;;;;;;;20.53;26.04;97024.16;5053833;28;20139;-80
2023/04/10 11:43:51;;;;;;;4.75;4.30;;;;;;;20.24;25.90;97013.50;5053550;28;20544;-79
2023/04/10 11:46:20;;;;;;;5.22;4.43;;;;;;;19.90;26.26;97020.47;5053297;28;20045;-80
2023/04/10 11:48:47;;;;;;;3.80;3.40;;;;;;;19.56;26.71;97012.25;5053972;28;20099;-80
2023/04/10 11:51:16;;;;;;;3.70;3.30;;;;;;;19.48;26.98;97012.56;5056270;28;20048;-80
2023/04/10 11:53:45;;;;;;;3.65;3.35;;;;;;;19.47;26.55;97003.03;5053418;28;20103;-80
2023/04/10 11:56:21;;;;;;;3.78;3.40;;;;;;;19.47;26.76;97001.19;5053558;28;20051;-80
2023/04/10 11:58:52;;;;;;;3.05;2.75;;;;;;;19.60;26.52;97002.03;5053627;28;20073;-79
2023/04/10 12:01:22;;;;;;;5.47;3.80;;;;;;;19.68;26.92;97004.34;5053402;28;20044;-80
2023/04/10 12:03:50;;;;;;;3.22;2.92;;;;;;;19.73;26.60;97002.63;5053413;28;20140;-80
2023/04/10 12:06:20;;;;;;;3.25;2.95;;;;;;;19.82;26.34;96991.69;5053656;28;20087;-79
2023/04/10 12:08:49;;;;;;;4.85;3.50;;;;;;;19.88;26.70;96990.78;5053241;28;20049;-80
2023/04/10 12:11:19;;;;;;;2.97;2.78;;;;;;;19.94;25.79;96993.31;5053424;28;20045;-81